createdAt,value
2018-07-11T00:00:29.793Z,12.50
2018-07-11T00:02:58.277Z,12.50
2018-07-11T00:05:26.689Z,12.50
2018-07-11T00:07:55.110Z,12.50
2018-07-11T00:10:23.462Z,12.40
2018-07-11T00:12:51.905Z,12.40
2018-07-11T00:15:20.285Z,12.30
2018-07-11T00:17:48.692Z,12.20
2018-07-11T00:22:45.320Z,12.20
2018-07-11T00:25:13.798Z,12.20
2018-07-11T00:27:42.261Z,12.20
2018-07-11T00:30:10.727Z,12.10
2018-07-11T00:32:39.264Z,12.10
2018-07-11T00:37:35.877Z,12.10
2018-07-11T00:40:04.564Z,12.10
2018-07-11T00:42:33.144Z,12.10
2018-07-11T00:45:01.592Z,12.10
2018-07-11T00:47:30.254Z,12.10
2018-07-11T00:49:58.674Z,12.20
2018-07-11T00:52:27.146Z,12.30
2018-07-11T00:54:55.604Z,12.30
2018-07-11T00:57:24.044Z,12.30
2018-07-11T00:59:52.442Z,12.30
2018-07-11T01:02:21.106Z,12.30
2018-07-11T01:04:49.851Z,12.30
2018-07-11T01:07:18.308Z,12.30
2018-07-11T01:12:18.492Z,12.20
2018-07-11T01:14:47.520Z,12.10
2018-07-11T01:18:23.121Z,12.10
2018-07-11T01:20:51.566Z,12.10
2018-07-11T01:23:19.989Z,12.20
2018-07-11T01:25:48.401Z,12.20
2018-07-11T01:28:16.826Z,12.20
2018-07-11T01:30:45.342Z,12.20
2018-07-11T01:33:13.803Z,12.20
2018-07-11T01:35:42.272Z,12.20
2018-07-11T01:38:10.689Z,12.30
2018-07-11T01:40:39.226Z,12.40
2018-07-11T01:43:07.635Z,12.40
2018-07-11T01:45:36.012Z,12.40
2018-07-11T01:48:04.520Z,12.50
2018-07-11T01:50:32.972Z,12.40
2018-07-11T01:53:01.342Z,12.40
2018-07-11T01:55:29.768Z,12.40
2018-07-11T01:58:00.461Z,12.40
2018-07-11T02:00:29.874Z,12.30
2018-07-11T02:02:58.373Z,12.30
2018-07-11T02:05:27.715Z,12.30
2018-07-11T02:07:56.420Z,12.30
2018-07-11T02:10:25.105Z,12.30
2018-07-11T02:12:53.512Z,12.30
2018-07-11T02:15:22.015Z,12.40
2018-07-11T02:17:50.792Z,12.40
2018-07-11T02:20:19.259Z,12.40
2018-07-11T02:22:51.293Z,12.50
2018-07-11T02:25:20.268Z,12.50
2018-07-11T02:30:17.576Z,12.50
2018-07-11T02:32:46.188Z,12.50
2018-07-11T02:35:14.687Z,12.40
2018-07-11T02:37:43.118Z,12.40
2018-07-11T02:40:11.516Z,12.40
2018-07-11T02:42:39.901Z,12.30
2018-07-11T02:45:08.312Z,12.30
2018-07-11T02:47:44.329Z,12.30
2018-07-11T02:50:14.077Z,12.30
2018-07-11T02:52:42.687Z,12.30
2018-07-11T02:55:11.152Z,12.30
2018-07-11T02:57:39.522Z,12.30
2018-07-11T03:00:08.190Z,12.40
2018-07-11T03:05:04.949Z,12.30
2018-07-11T03:07:33.450Z,12.30
2018-07-11T03:10:01.905Z,12.30
2018-07-11T03:12:30.411Z,12.30
2018-07-11T03:14:58.839Z,12.40
2018-07-11T03:17:27.613Z,12.40
2018-07-11T03:19:56.525Z,12.50
2018-07-11T03:22:24.994Z,12.50
2018-07-11T03:24:53.465Z,12.60
2018-07-11T03:27:21.932Z,12.60
2018-07-11T03:29:50.345Z,12.60
2018-07-11T03:32:18.734Z,12.70
2018-07-11T03:34:47.220Z,12.70
2018-07-11T03:37:15.643Z,12.70
2018-07-11T03:39:44.025Z,12.80
2018-07-11T03:42:12.430Z,12.80
2018-07-11T03:44:40.914Z,12.80
2018-07-11T03:47:09.329Z,12.80
2018-07-11T03:49:37.760Z,12.80
2018-07-11T03:52:06.419Z,12.80
2018-07-11T03:54:34.825Z,12.80
2018-07-11T03:57:03.189Z,12.80
2018-07-11T03:59:31.569Z,12.80
2018-07-11T04:01:59.934Z,12.80
2018-07-11T04:04:28.350Z,12.80
2018-07-11T04:06:56.733Z,12.80
2018-07-11T04:09:25.281Z,12.80
2018-07-11T04:11:53.631Z,12.80
2018-07-11T04:14:22.035Z,12.80
2018-07-11T04:16:50.412Z,12.90
2018-07-11T04:19:18.814Z,12.80
2018-07-11T04:21:47.257Z,12.80
2018-07-11T04:24:15.584Z,12.80
2018-07-11T04:26:44.022Z,12.80
2018-07-11T04:29:12.403Z,12.80
2018-07-11T04:31:40.781Z,12.80
2018-07-11T04:34:09.171Z,12.80
2018-07-11T04:36:37.573Z,12.70
2018-07-11T04:39:05.968Z,12.70
2018-07-11T04:41:34.372Z,12.70
2018-07-11T04:44:02.801Z,12.70
2018-07-11T04:46:31.253Z,12.70
2018-07-11T04:48:59.768Z,12.70
2018-07-11T04:51:28.189Z,12.70
2018-07-11T04:53:56.614Z,12.60
2018-07-11T04:56:25.113Z,12.70
2018-07-11T04:58:53.559Z,12.70
2018-07-11T05:01:21.927Z,12.70
2018-07-11T05:03:50.534Z,12.70
2018-07-11T05:06:18.881Z,12.70
2018-07-11T05:08:47.386Z,12.70
2018-07-11T05:11:15.960Z,12.70
2018-07-11T05:13:44.334Z,12.70
2018-07-11T05:16:12.687Z,12.60
2018-07-11T05:18:41.120Z,12.60
2018-07-11T05:21:09.516Z,12.60
2018-07-11T05:23:38.058Z,12.60
2018-07-11T05:26:06.430Z,12.60
2018-07-11T05:28:34.836Z,12.60
2018-07-11T05:31:03.277Z,12.70
2018-07-11T05:33:31.825Z,12.70
2018-07-11T05:36:00.397Z,12.70
2018-07-11T05:38:28.752Z,12.80
2018-07-11T05:40:57.134Z,12.80
2018-07-11T05:43:25.525Z,12.80
2018-07-11T05:45:54.083Z,12.80
2018-07-11T05:48:23.264Z,12.80
2018-07-11T05:50:51.678Z,12.90
2018-07-11T05:53:20.044Z,13.00
2018-07-11T05:55:48.473Z,13.00
2018-07-11T05:58:16.841Z,13.00
2018-07-11T06:00:45.235Z,13.00
2018-07-11T06:03:13.621Z,13.10
2018-07-11T06:05:42.025Z,13.10
2018-07-11T06:08:10.403Z,13.20
2018-07-11T06:10:38.761Z,13.10
2018-07-11T06:13:07.409Z,13.20
2018-07-11T06:15:35.755Z,13.30
2018-07-11T06:18:04.245Z,13.30
2018-07-11T06:20:32.575Z,13.30
2018-07-11T06:23:00.963Z,13.40
2018-07-11T06:27:57.541Z,13.40
2018-07-11T06:30:25.863Z,13.40
2018-07-11T06:32:54.236Z,13.30
2018-07-11T06:35:22.590Z,13.30
2018-07-11T06:37:51.066Z,13.30
2018-07-11T06:40:19.420Z,13.30
2018-07-11T06:42:47.763Z,13.40
2018-07-11T06:45:16.254Z,13.30
2018-07-11T06:50:12.677Z,13.40
2018-07-11T06:52:41.039Z,13.30
2018-07-11T06:55:09.479Z,13.30
2018-07-11T06:57:37.887Z,13.40
2018-07-11T07:00:06.217Z,13.50
2018-07-11T07:02:34.684Z,13.50
2018-07-11T07:05:03.027Z,13.40
2018-07-11T07:07:31.429Z,13.30
2018-07-11T07:09:59.777Z,13.30
2018-07-11T07:12:28.150Z,13.30
2018-07-11T07:14:56.498Z,13.40
2018-07-11T07:17:24.851Z,13.50
2018-07-11T07:19:53.243Z,13.60
2018-07-11T07:22:21.634Z,13.70
2018-07-11T07:24:49.949Z,13.80
2018-07-11T07:27:18.364Z,13.90
2018-07-11T07:30:49.875Z,14.00
2018-07-11T07:33:18.250Z,14.00
2018-07-11T07:35:46.599Z,14.30
2018-07-11T07:38:14.952Z,14.60
2018-07-11T07:40:43.306Z,14.70
2018-07-11T07:43:11.650Z,14.90
2018-07-11T07:45:40.484Z,15.10
2018-07-11T07:48:08.857Z,15.20
2018-07-11T07:50:37.232Z,15.30
2018-07-11T07:53:05.625Z,15.40
2018-07-11T07:55:34.029Z,15.40
2018-07-11T07:58:02.421Z,15.50
2018-07-11T08:00:30.864Z,15.60
2018-07-11T08:02:59.898Z,15.80
2018-07-11T08:05:28.287Z,15.90
2018-07-11T08:07:56.648Z,15.70
2018-07-11T08:12:53.069Z,15.80
2018-07-11T08:15:21.435Z,15.70
2018-07-11T08:17:49.894Z,15.60
2018-07-11T08:20:18.212Z,15.70
2018-07-11T08:23:24.387Z,15.80
2018-07-11T08:27:05.833Z,15.80
2018-07-11T08:35:41.914Z,15.50
2018-07-11T08:38:20.689Z,15.70
2018-07-11T08:43:05.821Z,15.60
2018-07-11T08:46:04.823Z,15.50
2018-07-11T08:50:48.442Z,15.30
2018-07-11T08:53:29.976Z,15.30
2018-07-11T08:59:15.255Z,15.20
2018-07-11T09:03:58.615Z,15.20
2018-07-11T09:06:46.247Z,15.00
2018-07-11T09:11:31.978Z,14.80
2018-07-11T09:16:15.305Z,14.80
2018-07-11T09:18:58.033Z,14.70
2018-07-11T09:21:42.622Z,14.50
2018-07-11T09:24:23.244Z,14.50
2018-07-11T09:26:51.618Z,14.50
2018-07-11T09:29:20.022Z,14.50
2018-07-11T09:31:48.446Z,14.60
2018-07-11T09:34:16.882Z,14.60
2018-07-11T09:36:45.256Z,14.60
2018-07-11T09:39:13.645Z,14.60
2018-07-11T09:41:42.061Z,14.60
2018-07-11T09:44:10.473Z,14.70
2018-07-11T09:46:38.936Z,14.70
2018-07-11T09:49:07.962Z,14.70
2018-07-11T09:51:36.357Z,14.70
2018-07-11T09:54:04.774Z,14.80
2018-07-11T09:56:33.199Z,14.80
2018-07-11T09:59:01.796Z,14.70
2018-07-11T10:01:30.254Z,14.80
2018-07-11T10:06:29.064Z,14.70
2018-07-11T10:08:58.452Z,14.60
2018-07-11T10:11:26.855Z,14.60
2018-07-11T10:13:55.297Z,14.50
2018-07-11T10:16:23.647Z,14.60
2018-07-11T10:19:03.968Z,14.70
2018-07-11T10:21:33.257Z,14.80
2018-07-11T10:24:02.129Z,14.90
2018-07-11T10:26:30.506Z,15.20
2018-07-11T10:28:58.921Z,15.30
2018-07-11T10:31:28.206Z,15.40
2018-07-11T10:33:56.611Z,15.50
2018-07-11T10:36:24.975Z,15.60
2018-07-11T10:38:53.368Z,15.80
2018-07-11T10:41:21.769Z,15.70
2018-07-11T10:43:50.172Z,15.70
2018-07-11T10:46:18.612Z,15.50
2018-07-11T10:48:46.973Z,15.40
2018-07-11T10:51:15.410Z,15.60
2018-07-11T10:53:43.751Z,15.80
2018-07-11T10:56:12.157Z,16.00
2018-07-11T10:58:40.516Z,16.00
2018-07-11T11:01:08.942Z,16.00
2018-07-11T11:03:37.362Z,16.10
2018-07-11T11:06:05.789Z,16.30
2018-07-11T11:08:34.535Z,16.30
2018-07-11T11:11:03.107Z,16.30
2018-07-11T11:13:31.517Z,16.50
2018-07-11T11:15:59.885Z,16.60
2018-07-11T11:18:28.373Z,16.40
2018-07-11T11:20:57.291Z,16.40
2018-07-11T11:23:25.627Z,16.50
2018-07-11T11:25:54.034Z,16.80
2018-07-11T11:28:22.395Z,16.70
2018-07-11T11:30:50.808Z,16.70
2018-07-11T11:35:47.303Z,17.00
2018-07-11T11:38:15.765Z,17.10
2018-07-11T11:40:44.155Z,17.20
2018-07-11T11:43:12.548Z,17.50
2018-07-11T11:45:40.978Z,17.60
2018-07-11T11:48:09.364Z,17.60
2018-07-11T11:50:37.740Z,17.60
2018-07-11T11:53:06.216Z,17.40
2018-07-11T11:58:02.695Z,17.60
2018-07-11T12:00:31.289Z,17.50
2018-07-11T12:02:59.984Z,17.60
2018-07-11T12:05:28.785Z,17.40
2018-07-11T12:07:57.517Z,17.50
2018-07-11T12:10:26.002Z,17.20
2018-07-11T12:12:54.371Z,16.80
2018-07-11T12:15:22.764Z,16.70
2018-07-11T12:17:51.246Z,16.80
2018-07-11T12:20:19.634Z,16.70
2018-07-11T12:22:47.990Z,16.70
2018-07-11T12:25:16.394Z,16.90
2018-07-11T12:27:44.791Z,17.00
2018-07-11T12:30:13.165Z,17.20
2018-07-11T12:32:41.614Z,17.40
2018-07-11T12:35:10.031Z,17.60
2018-07-11T12:37:38.793Z,17.60
2018-07-11T12:40:07.145Z,17.80
2018-07-11T12:42:35.701Z,17.80
2018-07-11T12:45:04.105Z,17.90
2018-07-11T12:48:37.282Z,17.90
2018-07-11T12:51:05.694Z,18.00
2018-07-11T12:53:34.037Z,17.90
2018-07-11T12:56:02.537Z,17.90
2018-07-11T12:58:30.942Z,17.80
2018-07-11T13:00:59.343Z,17.60
2018-07-11T13:03:27.720Z,17.70
2018-07-11T13:05:56.201Z,17.60
2018-07-11T13:08:24.651Z,17.70
2018-07-11T13:10:53.071Z,17.80
2018-07-11T13:13:21.598Z,17.90
2018-07-11T13:15:50.052Z,17.90
2018-07-11T13:18:18.576Z,18.10
2018-07-11T13:20:47.108Z,18.20
2018-07-11T13:23:15.530Z,18.20
2018-07-11T13:25:44.028Z,18.30
2018-07-11T13:28:12.494Z,18.40
2018-07-11T13:30:40.938Z,18.40
2018-07-11T13:35:37.517Z,18.20
2018-07-11T13:38:06.044Z,18.30
2018-07-11T13:40:34.479Z,18.30
2018-07-11T13:43:02.941Z,18.10
2018-07-11T13:45:31.380Z,17.90
2018-07-11T13:48:02.493Z,17.90
2018-07-11T13:50:32.341Z,18.00
2018-07-11T13:53:01.209Z,18.10
2018-07-11T13:55:30.148Z,18.30
2018-07-11T13:58:00.018Z,18.40
2018-07-11T14:00:28.720Z,18.70
2018-07-11T14:02:57.213Z,19.00
2018-07-11T14:05:25.661Z,19.10
2018-07-11T14:07:54.032Z,19.10
2018-07-11T14:10:22.490Z,18.60
2018-07-11T14:12:51.000Z,18.40
2018-07-11T14:15:19.498Z,17.80
2018-07-11T14:17:48.007Z,17.40
2018-07-11T14:20:16.463Z,17.20
2018-07-11T14:22:47.976Z,17.10
2018-07-11T14:25:17.158Z,16.90
2018-07-11T14:27:47.659Z,16.90
2018-07-11T14:30:16.206Z,16.90
2018-07-11T14:32:51.401Z,16.80
2018-07-11T14:35:20.107Z,16.60
2018-07-11T14:37:49.458Z,16.80
2018-07-11T14:40:18.185Z,16.70
2018-07-11T14:42:46.818Z,16.70
2018-07-11T14:45:15.628Z,16.70
2018-07-11T14:47:49.303Z,16.60
2018-07-11T14:50:18.243Z,16.70
2018-07-11T14:52:47.139Z,16.80
2018-07-11T14:55:15.560Z,16.80
2018-07-11T14:57:44.005Z,16.80
2018-07-11T15:00:12.413Z,16.90
2018-07-11T15:02:40.809Z,16.80
2018-07-11T15:05:09.249Z,16.80
2018-07-11T15:07:37.784Z,16.90
2018-07-11T15:10:06.543Z,16.80
2018-07-11T15:12:35.146Z,16.70
2018-07-11T15:15:04.014Z,16.60
2018-07-11T15:17:32.809Z,16.60
2018-07-11T15:20:01.258Z,16.70
2018-07-11T15:22:29.745Z,16.80
2018-07-11T15:24:58.372Z,16.90
2018-07-11T15:27:26.912Z,16.90
2018-07-11T15:29:56.541Z,17.10
2018-07-11T15:32:24.966Z,17.10
2018-07-11T15:34:53.801Z,17.00
2018-07-11T15:37:22.445Z,17.00
2018-07-11T15:39:51.881Z,17.00
2018-07-11T15:42:20.631Z,17.10
2018-07-11T15:44:50.304Z,17.10
2018-07-11T15:47:20.951Z,16.90
2018-07-11T15:49:50.382Z,16.60
2018-07-11T15:52:20.399Z,16.30
2018-07-11T15:54:48.826Z,16.00
2018-07-11T15:57:20.883Z,15.80
2018-07-11T15:59:58.783Z,15.70
2018-07-11T16:02:27.188Z,15.60
2018-07-11T16:04:55.675Z,15.60
2018-07-11T16:07:27.167Z,15.40
2018-07-11T16:09:57.122Z,15.40
2018-07-11T16:12:25.977Z,15.30
2018-07-11T16:14:55.047Z,15.20
2018-07-11T16:17:23.401Z,15.10
2018-07-11T16:19:52.078Z,15.10
2018-07-11T16:24:49.077Z,15.10
2018-07-11T16:27:18.027Z,15.00
2018-07-11T16:29:46.383Z,15.10
2018-07-11T16:32:21.296Z,15.10
2018-07-11T16:34:49.714Z,15.10
2018-07-11T16:37:18.237Z,15.10
2018-07-11T16:39:46.686Z,15.10
2018-07-11T16:42:15.613Z,15.20
2018-07-11T16:44:44.551Z,15.30
2018-07-11T16:47:13.412Z,15.40
2018-07-11T16:49:42.674Z,15.40
2018-07-11T16:52:11.346Z,15.50
2018-07-11T16:54:39.775Z,15.60
2018-07-11T16:57:09.045Z,15.70
2018-07-11T16:59:47.196Z,15.80
2018-07-11T17:02:21.683Z,15.80
2018-07-11T17:04:51.926Z,15.90
2018-07-11T17:07:21.366Z,15.90
2018-07-11T17:09:50.971Z,15.90
2018-07-11T17:12:20.164Z,16.00
2018-07-11T17:14:49.035Z,15.90
2018-07-11T17:17:18.577Z,15.80
2018-07-11T17:20:18.102Z,15.70
2018-07-11T17:22:52.898Z,15.60
2018-07-11T17:25:21.902Z,15.50
2018-07-11T17:30:25.128Z,15.50
2018-07-11T17:32:54.160Z,15.50
2018-07-11T17:35:22.569Z,15.40
2018-07-11T17:37:51.106Z,15.40
2018-07-11T17:40:23.186Z,15.40
2018-07-11T17:42:51.626Z,15.40
2018-07-11T17:45:20.713Z,15.40
2018-07-11T17:48:00.706Z,15.40
2018-07-11T17:50:29.530Z,15.40
2018-07-11T17:53:08.153Z,15.30
2018-07-11T17:55:40.892Z,15.30
2018-07-11T17:58:10.235Z,15.10
2018-07-11T18:00:46.229Z,15.00
2018-07-11T18:05:30.334Z,14.90
2018-07-11T18:08:06.237Z,14.90
2018-07-11T18:10:43.336Z,14.60
2018-07-11T18:13:49.377Z,14.60
2018-07-11T18:16:29.192Z,14.40
2018-07-11T18:19:39.679Z,14.30
2018-07-11T18:22:21.700Z,14.20
2018-07-11T18:27:33.886Z,14.20
2018-07-11T18:32:19.024Z,14.20
2018-07-11T18:35:57.150Z,14.00
2018-07-11T18:38:38.313Z,13.90
2018-07-11T18:41:12.172Z,13.80
2018-07-11T18:43:54.005Z,13.80
2018-07-11T18:46:34.799Z,13.70
2018-07-11T18:49:16.778Z,13.60
2018-07-11T18:52:06.076Z,13.60
2018-07-11T18:56:17.785Z,13.50
2018-07-11T19:01:23.652Z,13.40
2018-07-11T19:04:11.384Z,13.40
2018-07-11T19:06:48.736Z,13.40
2018-07-11T19:09:28.278Z,13.30
2018-07-11T19:11:58.989Z,13.30
2018-07-11T19:14:52.432Z,13.30
2018-07-11T19:17:32.590Z,13.20
2018-07-11T19:20:15.309Z,13.20
2018-07-11T19:22:54.854Z,13.10
2018-07-11T19:27:35.470Z,13.10
2018-07-11T19:30:15.950Z,13.10
2018-07-11T19:32:58.356Z,13.00
2018-07-11T19:37:46.536Z,12.90
2018-07-11T19:40:30.901Z,12.80
2018-07-11T19:43:07.527Z,12.80
2018-07-11T19:45:50.175Z,12.70
2018-07-11T19:49:31.776Z,12.60
2018-07-11T19:52:04.210Z,12.60
2018-07-11T19:54:49.519Z,12.60
2018-07-11T19:57:17.968Z,12.60
2018-07-11T19:59:46.450Z,12.70
2018-07-11T20:02:14.879Z,12.70
2018-07-11T20:04:43.321Z,12.80
2018-07-11T20:07:11.759Z,12.80
2018-07-11T20:09:40.262Z,12.80
2018-07-11T20:12:08.740Z,12.80
2018-07-11T20:14:37.291Z,12.80
2018-07-11T20:17:05.710Z,12.80
2018-07-11T20:19:34.162Z,12.80
2018-07-11T20:22:02.645Z,12.90
2018-07-11T20:24:31.634Z,12.90
2018-07-11T20:27:00.030Z,13.00
2018-07-11T20:29:28.557Z,12.90
2018-07-11T20:31:56.979Z,12.90
2018-07-11T20:34:25.337Z,13.00
2018-07-11T20:36:53.700Z,12.90
2018-07-11T20:39:22.116Z,12.90
2018-07-11T20:41:50.476Z,12.90
2018-07-11T20:44:18.900Z,12.90
2018-07-11T20:46:47.302Z,12.90
2018-07-11T20:49:21.197Z,12.90
2018-07-11T20:51:49.609Z,12.90
2018-07-11T20:54:18.178Z,12.90
2018-07-11T20:56:46.590Z,13.00
2018-07-11T20:59:26.361Z,13.00
2018-07-11T21:02:05.989Z,13.00
2018-07-11T21:04:45.312Z,13.00
2018-07-11T21:07:26.723Z,13.00
2018-07-11T21:13:09.666Z,12.90
2018-07-11T21:15:53.772Z,12.90
2018-07-11T21:18:33.640Z,12.90
2018-07-11T21:21:02.083Z,12.80
2018-07-11T21:23:30.456Z,12.80
2018-07-11T21:28:33.408Z,12.80
2018-07-11T21:31:01.857Z,12.90
2018-07-11T21:33:30.570Z,12.80
2018-07-11T21:35:58.922Z,12.80
2018-07-11T21:38:27.316Z,12.90
2018-07-11T21:40:55.783Z,12.90
2018-07-11T21:43:24.201Z,12.90
2018-07-11T21:45:52.598Z,12.90
2018-07-11T21:48:21.778Z,12.90
2018-07-11T21:50:50.178Z,12.90
2018-07-11T21:53:18.570Z,12.90
2018-07-11T21:55:46.916Z,12.90
2018-07-11T21:58:16.002Z,12.90
2018-07-11T22:00:44.397Z,12.80
2018-07-11T22:03:12.846Z,12.80
2018-07-11T22:05:41.173Z,12.60
2018-07-11T22:08:09.794Z,12.50
2018-07-11T22:10:39.267Z,12.40
2018-07-11T22:13:07.981Z,12.40
2018-07-11T22:15:36.434Z,12.30
2018-07-11T22:18:16.423Z,12.30
2018-07-11T22:20:43.712Z,12.30
2018-07-11T22:23:10.999Z,12.20
2018-07-11T22:25:38.296Z,12.20
2018-07-11T22:28:05.611Z,12.20
2018-07-11T22:30:32.931Z,12.10
2018-07-11T22:33:00.261Z,12.10
2018-07-11T22:35:27.552Z,12.10
2018-07-11T22:37:54.905Z,12.20
2018-07-11T22:40:22.234Z,12.20
2018-07-11T22:42:49.544Z,12.20
2018-07-11T22:45:16.878Z,12.20
2018-07-11T22:47:44.169Z,12.20
2018-07-11T22:50:11.476Z,12.20
2018-07-11T22:52:38.884Z,12.20
2018-07-11T22:55:06.174Z,12.30
2018-07-11T22:57:33.500Z,12.20
2018-07-11T23:00:00.837Z,12.30
2018-07-11T23:02:28.160Z,12.30
2018-07-11T23:04:55.504Z,12.30
2018-07-11T23:07:22.786Z,12.30
2018-07-11T23:09:50.115Z,12.40
2018-07-11T23:12:17.402Z,12.40
2018-07-11T23:14:44.725Z,12.40
2018-07-11T23:17:12.017Z,12.40
2018-07-11T23:19:39.325Z,12.40
2018-07-11T23:22:06.625Z,12.50
2018-07-11T23:24:33.931Z,12.50
2018-07-11T23:27:01.217Z,12.50
2018-07-11T23:29:28.564Z,12.60
2018-07-11T23:31:55.867Z,12.60
2018-07-11T23:34:23.197Z,12.60
2018-07-11T23:36:50.512Z,12.60
2018-07-11T23:39:17.833Z,12.60
2018-07-11T23:41:45.139Z,12.60
2018-07-11T23:44:12.468Z,12.50
2018-07-11T23:55:52.965Z,12.50
2018-07-11T23:58:20.254Z,12.50
